Aviation Digital Data Service (ADDS)

Output produced by TAFs form (1216 UTC 05 September 2015)
found at http://aviationweather.gov/adds/tafs/
 
KAMA 051120Z 0512/0612 18008KT P6SM FEW110 BKN200 
     FM051500 20014G22KT P6SM FEW110 SCT200 
     FM060000 18011KT P6SM BKN200